Time;durP1;ratioP1;P1;durP2;ratioP2;P2;SDS_P1;SDS_P2;PMS_P1;PMS_P2;Temp;Humidity;BMP_temperature;BMP_pressure;BME280_temperature;BME280_humidity;BME280_pressure;Samples;Min_cycle;Max_cycle;Signal;HPM_P1;HPM_P2
2023/10/19 05:19:30;;;;;;;;;;;;;;;;;;5011853;28;19987;-44
2023/10/19 05:21:56;;;;;;;;;;;;;;;;;;5012793;28;19987;-44
2023/10/19 05:24:22;;;;;;;;;;;;;;;;;;5012799;28;19952;-44
2023/10/19 05:26:48;;;;;;;;;;;;;;;;;;5012541;28;20527;-45
2023/10/19 05:29:14;;;;;;;;;;;;;;;;;;5013066;28;19909;-46
2023/10/19 05:31:40;;;;;;;;;;;;;;;;;;5012567;28;19909;-44
2023/10/19 05:34:07;;;;;;;;;;;;;;;;;;5011900;28;19932;-44
2023/10/19 05:36:33;;;;;;;;;;;;;;;;;;5011161;28;19968;-44
2023/10/19 05:38:59;;;;;;;;;;;;;;;;;;5010409;28;19947;-44
2023/10/19 05:41:26;;;;;;;;;;;;;;;;;;5012476;28;19910;-45
2023/10/19 05:43:53;;;;;;;;;;;;;;;;;;5011583;28;19932;-44
2023/10/19 05:46:21;;;;;;;;;;;;;;;;;;5012555;28;20478;-43
2023/10/19 05:48:48;;;;;;;;;;;;;;;;;;5011554;28;19914;-44
2023/10/19 05:51:15;;;;;;;;;;;;;;;;;;5012637;28;19916;-44
2023/10/19 05:53:41;;;;;;;;;;;;;;;;;;5011847;28;20004;-44
2023/10/19 05:56:07;;;;;;;;;;;;;;;;;;5011951;28;19913;-46
2023/10/19 05:58:33;;;;;;;;;;;;;;;;;;5010588;28;19917;-43
2023/10/19 06:00:59;;;;;;;;;;;;;;;;;;5010601;28;19989;-46
2023/10/19 06:03:25;;;;;;;;;;;;;;;;;;4992531;28;19910;-43
2023/10/19 06:05:51;;;;;;;;;;;;;;;;;;5009237;28;19964;-44
2023/10/19 06:08:16;;;;;;;;;;;;;;;;;;5003927;28;19968;-44
2023/10/19 06:10:42;;;;;;;;;;;;;;;;;;5007842;28;20433;-44
2023/10/19 06:13:09;;;;;;;;;;;;;;;;;;5008376;28;19924;-45
2023/10/19 06:15:35;;;;;;;;;;;;;;;;;;5008908;28;19948;-47
2023/10/19 06:18:01;;;;;;;;;;;;;;;;;;5011078;28;19955;-46
2023/10/19 06:20:27;;;;;;;;;;;;;;;;;;5011111;28;19925;-44
2023/10/19 06:22:53;;;;;;;;;;;;;;;;;;5011712;28;20047;-44
2023/10/19 06:25:19;;;;;;;;;;;;;;;;;;5010512;28;20275;-44
2023/10/19 06:27:45;;;;;;;;;;;;;;;;;;5000805;28;20385;-44
2023/10/19 06:30:11;;;;;;;;;;;;;;;;;;5009282;28;19920;-44
2023/10/19 06:32:37;;;;;;;;;;;;;;;;;;5004877;28;19921;-46
2023/10/19 06:35:02;;;;;;;;;;;;;;;;;;5009654;28;19913;-44
2023/10/19 06:37:28;;;;;;;;;;;;;;;;;;5010033;28;19913;-43
2023/10/19 06:39:54;;;;;;;;;;;;;;;;;;5006043;28;20024;-43
2023/10/19 06:42:20;;;;;;;;;;;;;;;;;;5008351;28;20000;-46
2023/10/19 06:44:46;;;;;;;;;;;;;;;;;;5007929;28;19971;-43
2023/10/19 06:47:13;;;;;;;;;;;;;;;;;;5007178;28;20327;-45
2023/10/19 06:49:39;;;;;;;;;;;;;;;;;;5008746;28;19914;-48
2023/10/19 06:52:05;;;;;;;;;;;;;;;;;;5010038;28;19910;-44
2023/10/19 06:54:31;;;;;;;;;;;;;;;;;;5008217;28;19959;-44
2023/10/19 06:56:57;;;;;;;;;;;;;;;;;;5010800;28;19917;-44
2023/10/19 06:59:24;;;;;;;;;;;;;;;;;;5010924;28;19959;-46
2023/10/19 07:01:50;;;;;;;;;;;;;;;;;;5011143;28;20415;-45
2023/10/19 07:04:16;;;;;;;;;;;;;;;;;;5009975;28;19914;-45
2023/10/19 07:06:41;;;;;;;;;;;;;;;;;;5008889;28;20547;-46
2023/10/19 07:09:10;;;;;;;;;;;;;;;;;;5010341;28;19909;-47
2023/10/19 07:11:36;;;;;;;;;;;;;;;;;;5009354;28;19921;-44
2023/10/19 07:14:03;;;;;;;;;;;;;;;;;;5007974;28;20052;-44
2023/10/19 07:16:29;;;;;;;;;;;;;;;;;;5017569;28;19909;-44
2023/10/19 07:18:57;;;;;;;;;;;;;;;;;;5018513;28;19918;-45
2023/10/19 07:21:23;;;;;;;;;;;;;;;;;;5010878;28;20395;-46
2023/10/19 07:23:52;;;;;;;;;;;;;;;;;;5010225;28;19956;-44
2023/10/19 07:26:19;;;;;;;;;;;;;;;;;;5009469;28;19920;-45
2023/10/19 07:28:45;;;;;;;;;;;;;;;;;;5010501;28;19952;-47
2023/10/19 07:31:15;;;;;;;;;;;;;;;;;;5009031;28;19995;-43
2023/10/19 07:33:49;;;;;;;;;;;;;;;;;;5010086;28;19941;-45
2023/10/19 07:36:15;;;;;;;;;;;;;;;;;;5008111;28;20004;-45
2023/10/19 07:38:42;;;;;;;;;;;;;;;;;;5012668;28;19996;-46
2023/10/19 07:41:09;;;;;;;;;;;;;;;;;;5011615;28;19985;-44
2023/10/19 07:43:35;;;;;;;;;;;;;;;;;;5008955;28;19996;-46
2023/10/19 07:46:01;;;;;;;;;;;;;;;;;;5001386;28;19997;-44
2023/10/19 07:48:27;;;;;;;;;;;;;;;;;;4990891;28;19910;-47
2023/10/19 07:50:55;;;;;;;;;;;;;;;;;;5009072;28;19910;-46
2023/10/19 07:53:21;;;;;;;;;;;;;;;;;;5010563;28;19956;-45
2023/10/19 07:55:47;;;;;;;;;;;;;;;;;;5010224;28;19964;-46
2023/10/19 07:58:13;;;;;;;;;;;;;;;;;;5009492;28;20391;-47
2023/10/19 08:00:39;;;;;;;;;;;;;;;;;;5010429;28;19921;-45
2023/10/19 08:03:05;;;;;;;;;;;;;;;;;;5010213;28;20360;-44
2023/10/19 08:05:31;;;;;;;;;;;;;;;;;;5009877;28;20292;-44
2023/10/19 08:07:58;;;;;;;;;;;;;;;;;;5009262;28;19929;-44
2023/10/19 08:10:25;;;;;;;;;;;;;;;;;;5010519;28;20373;-45
2023/10/19 08:12:51;;;;;;;;;;;;;;;;;;5009724;28;19914;-46
2023/10/19 08:15:17;;;;;;;;;;;;;;;;;;5009931;28;19910;-43
2023/10/19 08:17:43;;;;;;;;;;;;;;;;;;5011055;28;19933;-43
2023/10/19 08:20:09;;;;;;;;;;;;;;;;;;5013721;28;20380;-45
2023/10/19 08:22:36;;;;;;;;;;;;;;;;;;5014267;28;20004;-43
2023/10/19 08:25:03;;;;;;;;;;;;;;;;;;5014086;28;19996;-45
2023/10/19 08:27:29;;;;;;;;;;;;;;;;;;5013039;28;19920;-45
2023/10/19 08:29:55;;;;;;;;;;;;;;;;;;5012897;28;19913;-44
2023/10/19 08:32:21;;;;;;;;;;;;;;;;;;5011296;28;19921;-43
2023/10/19 08:34:47;;;;;;;;;;;;;;;;;;5012878;28;19914;-44
2023/10/19 08:37:13;;;;;;;;;;;;;;;;;;5013814;28;19917;-44
2023/10/19 08:39:40;;;;;;;;;;;;;;;;;;5013574;28;19914;-43
2023/10/19 08:42:06;;;;;;;;;;;;;;;;;;5013602;28;19944;-44
2023/10/19 08:44:32;;;;;;;;;;;;;;;;;;5010715;28;19963;-44
2023/10/19 08:46:59;;;;;;;;;;;;;;;;;;5013668;28;20008;-44
2023/10/19 08:49:26;;;;;;;;;;;;;;;;;;5013309;28;19910;-45
2023/10/19 08:51:52;;;;;;;;;;;;;;;;;;5012576;28;19913;-43
2023/10/19 08:54:17;;;;;;;;;;;;;;;;;;5011915;28;19921;-45
2023/10/19 08:56:44;;;;;;;;;;;;;;;;;;5013636;28;19964;-43
2023/10/19 08:59:15;;;;;;;;;;;;;;;;;;5013306;28;20000;-42
2023/10/19 09:01:43;;;;;;;;;;;;;;;;;;5011592;28;20495;-43
2023/10/19 09:04:09;;;;;;;;;;;;;;;;;;5012330;28;20411;-43
2023/10/19 09:06:41;;;;;;;;;;;;;;;;;;5013433;28;19909;-45
2023/10/19 09:09:09;;;;;;;;;;;;;;;;;;5013036;28;19909;-42
2023/10/19 09:11:35;;;;;;;;;;;;;;;;;;5011294;28;19968;-43
2023/10/19 09:14:01;;;;;;;;;;;;;;;;;;5013014;28;19909;-44
2023/10/19 09:16:27;;;;;;;;;;;;;;;;;;5013199;28;20368;-44
2023/10/19 09:18:53;;;;;;;;;;;;;;;;;;5012897;28;19940;-43
2023/10/19 09:21:25;;;;;;;;;;;;;;;;;;5013058;28;19937;-43
2023/10/19 09:23:51;;;;;;;;;;;;;;;;;;5009470;28;20016;-43
2023/10/19 09:26:18;;;;;;;;;;;;;;;;;;5010468;28;20153;-43
2023/10/19 09:28:43;;;;;;;;;;;;;;;;;;5013142;28;19913;-42
2023/10/19 09:31:09;;;;;;;;;;;;;;;;;;5012167;28;20320;-43
2023/10/19 09:33:35;;;;;;;;;;;;;;;;;;5011626;28;19921;-43
2023/10/19 09:36:01;;;;;;;;;;;;;;;;;;5010692;28;19980;-43
2023/10/19 09:38:27;;;;;;;;;;;;;;;;;;5011061;28;19964;-42
2023/10/19 09:40:54;;;;;;;;;;;;;;;;;;5011543;28;19967;-43
2023/10/19 09:43:20;;;;;;;;;;;;;;;;;;5010097;28;20016;-44
2023/10/19 09:45:49;;;;;;;;;;;;;;;;;;5009865;28;20012;-43
2023/10/19 09:48:16;;;;;;;;;;;;;;;;;;5010272;28;19959;-43
2023/10/19 09:50:42;;;;;;;;;;;;;;;;;;5010470;28;19921;-42
2023/10/19 09:53:08;;;;;;;;;;;;;;;;;;5012400;28;19913;-43
2023/10/19 09:55:34;;;;;;;;;;;;;;;;;;5009623;28;19913;-42
2023/10/19 09:58:00;;;;;;;;;;;;;;;;;;5012010;28;19916;-43
2023/10/19 10:00:31;;;;;;;;;;;;;;;;;;5010413;28;19920;-42
2023/10/19 10:02:57;;;;;;;;;;;;;;;;;;5012329;28;20407;-43
2023/10/19 10:05:23;;;;;;;;;;;;;;;;;;5012229;28;19906;-44
2023/10/19 10:07:50;;;;;;;;;;;;;;;;;;5012077;28;19916;-42
2023/10/19 10:10:15;;;;;;;;;;;;;;;;;;5008231;28;20295;-43
2023/10/19 10:12:41;;;;;;;;;;;;;;;;;;5010294;28;19918;-42
2023/10/19 10:15:07;;;;;;;;;;;;;;;;;;5010632;28;19917;-42
2023/10/19 10:17:33;;;;;;;;;;;;;;;;;;5009681;28;19913;-42
2023/10/19 10:19:59;;;;;;;;;;;;;;;;;;5010395;28;19921;-42
2023/10/19 10:22:26;;;;;;;;;;;;;;;;;;5009974;28;19913;-42
2023/10/19 10:24:52;;;;;;;;;;;;;;;;;;5011546;28;19914;-41
2023/10/19 10:27:19;;;;;;;;;;;;;;;;;;5012050;28;19964;-43
2023/10/19 10:29:45;;;;;;;;;;;;;;;;;;5011400;28;19914;-42
2023/10/19 10:32:12;;;;;;;;;;;;;;;;;;5010449;28;20388;-42
2023/10/19 10:34:38;;;;;;;;;;;;;;;;;;5010319;28;20005;-42
2023/10/19 10:37:04;;;;;;;;;;;;;;;;;;5010572;28;20036;-42
2023/10/19 10:39:33;;;;;;;;;;;;;;;;;;5010247;28;20293;-43
2023/10/19 10:41:59;;;;;;;;;;;;;;;;;;5009334;28;19910;-42
2023/10/19 10:44:25;;;;;;;;;;;;;;;;;;5010220;28;19913;-42
2023/10/19 10:46:51;;;;;;;;;;;;;;;;;;5010102;28;19949;-42
2023/10/19 10:49:17;;;;;;;;;;;;;;;;;;5010458;28;20334;-44
2023/10/19 10:51:43;;;;;;;;;;;;;;;;;;5010001;28;19916;-42
2023/10/19 10:54:09;;;;;;;;;;;;;;;;;;5010290;28;19917;-42
2023/10/19 10:56:35;;;;;;;;;;;;;;;;;;5009728;28;19916;-41
2023/10/19 10:59:01;;;;;;;;;;;;;;;;;;5009943;28;19917;-43
2023/10/19 11:01:26;;;;;;;;;;;;;;;;;;5009755;28;19909;-43
2023/10/19 11:03:52;;;;;;;;;;;;;;;;;;5010028;28;19910;-42
2023/10/19 11:06:18;;;;;;;;;;;;;;;;;;5010124;28;19910;-42
2023/10/19 11:08:44;;;;;;;;;;;;;;;;;;5009985;28;20230;-42
2023/10/19 11:11:13;;;;;;;;;;;;;;;;;;5009633;28;19909;-42
2023/10/19 11:13:39;;;;;;;;;;;;;;;;;;5009950;28;19914;-42
2023/10/19 11:16:05;;;;;;;;;;;;;;;;;;5007541;28;20097;-42
2023/10/19 11:18:32;;;;;;;;;;;;;;;;;;5008552;28;20004;-43
2023/10/19 11:20:59;;;;;;;;;;;;;;;;;;5006763;28;19917;-42
2023/10/19 11:23:25;;;;;;;;;;;;;;;;;;5008547;28;19910;-42
2023/10/19 11:25:51;;;;;;;;;;;;;;;;;;5008790;28;19921;-43
2023/10/19 11:28:18;;;;;;;;;;;;;;;;;;5007852;28;19909;-42
2023/10/19 11:30:48;;;;;;;;;;;;;;;;;;5007673;28;19920;-43
2023/10/19 11:33:18;;;;;;;;;;;;;;;;;;5007935;28;20408;-42
2023/10/19 11:35:44;;;;;;;;;;;;;;;;;;5007725;28;19910;-42
2023/10/19 11:38:10;;;;;;;;;;;;;;;;;;5007575;28;20437;-43
2023/10/19 11:40:35;;;;;;;;;;;;;;;;;;5007691;28;19917;-42
2023/10/19 11:43:01;;;;;;;;;;;;;;;;;;5007956;28;20435;-43
2023/10/19 11:45:28;;;;;;;;;;;;;;;;;;5007458;28;20400;-42
2023/10/19 11:47:55;;;;;;;;;;;;;;;;;;5008329;28;19906;-43
2023/10/19 11:50:21;;;;;;;;;;;;;;;;;;5008115;28;20316;-42
2023/10/19 11:52:46;;;;;;;;;;;;;;;;;;5008450;28;19913;-43
2023/10/19 11:55:15;;;;;;;;;;;;;;;;;;5011705;28;19917;-41
2023/10/19 11:57:43;;;;;;;;;;;;;;;;;;5011556;28;19913;-42
2023/10/19 12:00:09;;;;;;;;;;;;;;;;;;5011632;28;19918;-42
2023/10/19 12:02:36;;;;;;;;;;;;;;;;;;5011428;28;20066;-42
2023/10/19 12:05:02;;;;;;;;;;;;;;;;;;5011425;28;19910;-42
2023/10/19 12:07:29;;;;;;;;;;;;;;;;;;5011074;28;19910;-41
2023/10/19 12:09:54;;;;;;;;;;;;;;;;;;5012218;28;19910;-42
2023/10/19 12:12:20;;;;;;;;;;;;;;;;;;5011364;28;19916;-42
2023/10/19 12:14:46;;;;;;;;;;;;;;;;;;5011288;28;20069;-42
2023/10/19 12:17:12;;;;;;;;;;;;;;;;;;5010972;28;19909;-41
2023/10/19 12:19:38;;;;;;;;;;;;;;;;;;5011092;28;19918;-42
2023/10/19 12:22:04;;;;;;;;;;;;;;;;;;5011472;28;20265;-42
2023/10/19 12:24:30;;;;;;;;;;;;;;;;;;5011255;28;20368;-41
2023/10/19 12:26:56;;;;;;;;;;;;;;;;;;5011429;28;19910;-41
2023/10/19 12:29:22;;;;;;;;;;;;;;;;;;5011393;28;20020;-41
2023/10/19 12:31:48;;;;;;;;;;;;;;;;;;5009492;28;20332;-41
2023/10/19 12:34:14;;;;;;;;;;;;;;;;;;5010716;28;19917;-41
2023/10/19 12:36:41;;;;;;;;;;;;;;;;;;5010744;28;19916;-41
2023/10/19 12:39:07;;;;;;;;;;;;;;;;;;5010876;28;19914;-41
2023/10/19 12:41:33;;;;;;;;;;;;;;;;;;5010728;28;20470;-39
2023/10/19 12:44:00;;;;;;;;;;;;;;;;;;5006682;28;20008;-39
2023/10/19 12:46:29;;;;;;;;;;;;;;;;;;5009161;28;20341;-39
2023/10/19 12:48:56;;;;;;;;;;;;;;;;;;5010985;28;20380;-40
2023/10/19 12:51:25;;;;;;;;;;;;;;;;;;5010516;28;20051;-39
2023/10/19 12:53:51;;;;;;;;;;;;;;;;;;5009747;28;19966;-40
2023/10/19 12:56:17;;;;;;;;;;;;;;;;;;5010348;28;19909;-40
2023/10/19 12:58:43;;;;;;;;;;;;;;;;;;5010477;28;19919;-40
2023/10/19 13:01:16;;;;;;;;;;;;;;;;;;5010030;28;20011;-39
2023/10/19 13:03:45;;;;;;;;;;;;;;;;;;5010142;28;20000;-40
2023/10/19 13:06:11;;;;;;;;;;;;;;;;;;5008227;28;19949;-40
2023/10/19 13:08:40;;;;;;;;;;;;;;;;;;5008337;28;19913;-40
2023/10/19 13:11:06;;;;;;;;;;;;;;;;;;5010017;28;20376;-40
2023/10/19 13:13:32;;;;;;;;;;;;;;;;;;5008570;28;19913;-39
2023/10/19 13:15:58;;;;;;;;;;;;;;;;;;5009252;28;20105;-40
2023/10/19 13:18:31;;;;;;;;;;;;;;;;;;5008542;28;19917;-40
2023/10/19 13:20:57;;;;;;;;;;;;;;;;;;5010083;28;19939;-40
2023/10/19 13:23:23;;;;;;;;;;;;;;;;;;5009723;28;19917;-40
2023/10/19 13:28:14;;;;;;;;;;;;;;;;;;5010485;28;19996;-40
2023/10/19 13:30:40;;;;;;;;;;;;;;;;;;5009777;28;20150;-40
2023/10/19 13:33:09;;;;;;;;;;;;;;;;;;5009253;28;19914;-40
2023/10/19 13:35:35;;;;;;;;;;;;;;;;;;5010053;28;20003;-40
2023/10/19 13:38:00;;;;;;;;;;;;;;;;;;5009530;28;20395;-40
2023/10/19 13:40:29;;;;;;;;;;;;;;;;;;5009805;28;19910;-40
2023/10/19 13:42:56;;;;;;;;;;;;;;;;;;5008714;28;20028;-40
2023/10/19 13:45:22;;;;;;;;;;;;;;;;;;5007135;28;19921;-39
2023/10/19 13:47:47;;;;;;;;;;;;;;;;;;5006124;28;20438;-40
2023/10/19 13:50:13;;;;;;;;;;;;;;;;;;5008477;28;19916;-40
2023/10/19 13:52:39;;;;;;;;;;;;;;;;;;5010203;28;19916;-40
2023/10/19 13:55:07;;;;;;;;;;;;;;;;;;5009550;28;19944;-39
2023/10/19 13:57:33;;;;;;;;;;;;;;;;;;5009484;28;19909;-40
2023/10/19 13:59:59;;;;;;;;;;;;;;;;;;5009163;28;20406;-40
2023/10/19 14:02:24;;;;;;;;;;;;;;;;;;5009316;28;20004;-40
2023/10/19 14:04:51;;;;;;;;;;;;;;;;;;5008834;28;19912;-40
2023/10/19 14:07:17;;;;;;;;;;;;;;;;;;5004694;28;20390;-40
2023/10/19 14:09:44;;;;;;;;;;;;;;;;;;5006400;28;20012;-40
2023/10/19 14:12:10;;;;;;;;;;;;;;;;;;5009635;28;19909;-40
2023/10/19 14:14:36;;;;;;;;;;;;;;;;;;5007251;28;20463;-40
2023/10/19 14:17:02;;;;;;;;;;;;;;;;;;5006195;28;19918;-40
2023/10/19 14:19:28;;;;;;;;;;;;;;;;;;5007009;28;19917;-40
2023/10/19 14:21:56;;;;;;;;;;;;;;;;;;5008062;28;20139;-40
2023/10/19 14:24:22;;;;;;;;;;;;;;;;;;5008978;28;19913;-40
2023/10/19 14:26:48;;;;;;;;;;;;;;;;;;5008795;28;20597;-40
2023/10/19 14:29:14;;;;;;;;;;;;;;;;;;5006644;28;19968;-40
2023/10/19 14:31:40;;;;;;;;;;;;;;;;;;5009587;28;20008;-40
2023/10/19 14:34:07;;;;;;;;;;;;;;;;;;5008301;28;20292;-40
2023/10/19 14:36:33;;;;;;;;;;;;;;;;;;5008738;28;19921;-41
2023/10/19 14:38:59;;;;;;;;;;;;;;;;;;5006313;28;20312;-40
2023/10/19 14:41:25;;;;;;;;;;;;;;;;;;5008530;28;19909;-40
2023/10/19 14:43:51;;;;;;;;;;;;;;;;;;5008272;28;19916;-40
2023/10/19 14:46:17;;;;;;;;;;;;;;;;;;5008497;28;19916;-40
2023/10/19 14:48:43;;;;;;;;;;;;;;;;;;5008392;28;19917;-40
2023/10/19 14:51:09;;;;;;;;;;;;;;;;;;5008919;28;19916;-40
2023/10/19 14:53:35;;;;;;;;;;;;;;;;;;5008337;28;19914;-40
2023/10/19 14:56:01;;;;;;;;;;;;;;;;;;5007812;28;20340;-40
2023/10/19 14:58:29;;;;;;;;;;;;;;;;;;5006686;28;19924;-40
2023/10/19 15:00:54;;;;;;;;;;;;;;;;;;5008664;28;20296;-40
2023/10/19 15:03:21;;;;;;;;;;;;;;;;;;5002343;28;19917;-40
2023/10/19 15:05:47;;;;;;;;;;;;;;;;;;5006830;28;19913;-40
2023/10/19 15:08:13;;;;;;;;;;;;;;;;;;5009324;28;19980;-40
2023/10/19 15:10:39;;;;;;;;;;;;;;;;;;5009434;28;19992;-40
2023/10/19 15:13:05;;;;;;;;;;;;;;;;;;5008670;28;20004;-40
2023/10/19 15:15:31;;;;;;;;;;;;;;;;;;5008234;28;19975;-40
2023/10/19 15:17:57;;;;;;;;;;;;;;;;;;5009069;28;19916;-40
2023/10/19 15:20:23;;;;;;;;;;;;;;;;;;5009261;28;19917;-40
2023/10/19 15:22:49;;;;;;;;;;;;;;;;;;5009192;28;19992;-40
2023/10/19 15:25:19;;;;;;;;;;;;;;;;;;5005865;28;19976;-40
2023/10/19 15:27:45;;;;;;;;;;;;;;;;;;5008614;28;19933;-40
2023/10/19 15:30:11;;;;;;;;;;;;;;;;;;5009297;28;19909;-40
2023/10/19 15:32:37;;;;;;;;;;;;;;;;;;5008107;28;20281;-40
2023/10/19 15:35:03;;;;;;;;;;;;;;;;;;5007649;28;19913;-40
2023/10/19 15:37:29;;;;;;;;;;;;;;;;;;5009090;28;19909;-40
2023/10/19 15:39:55;;;;;;;;;;;;;;;;;;5007261;28;19917;-40
2023/10/19 15:42:21;;;;;;;;;;;;;;;;;;5006832;28;20143;-41
2023/10/19 15:44:47;;;;;;;;;;;;;;;;;;5007466;28;19985;-40
2023/10/19 15:47:17;;;;;;;;;;;;;;;;;;5008939;28;19921;-41
2023/10/19 15:49:43;;;;;;;;;;;;;;;;;;5008738;28;19909;-40
2023/10/19 15:52:09;;;;;;;;;;;;;;;;;;5009649;28;19910;-41
2023/10/19 15:54:35;;;;;;;;;;;;;;;;;;5007606;28;19948;-40
2023/10/19 15:57:01;;;;;;;;;;;;;;;;;;5007678;28;19933;-41
2023/10/19 15:59:27;;;;;;;;;;;;;;;;;;5002912;28;20384;-41
2023/10/19 16:01:53;;;;;;;;;;;;;;;;;;5006378;28;19953;-40
2023/10/19 16:04:19;;;;;;;;;;;;;;;;;;5005440;28;19914;-41
2023/10/19 16:06:45;;;;;;;;;;;;;;;;;;5007562;28;19940;-41
2023/10/19 16:09:11;;;;;;;;;;;;;;;;;;5006982;28;19919;-41
2023/10/19 16:11:37;;;;;;;;;;;;;;;;;;5007662;28;19913;-40
2023/10/19 16:14:04;;;;;;;;;;;;;;;;;;5007400;28;19921;-40
2023/10/19 16:16:29;;;;;;;;;;;;;;;;;;5007650;28;19909;-41
2023/10/19 16:18:56;;;;;;;;;;;;;;;;;;5007056;28;19913;-41
2023/10/19 16:21:22;;;;;;;;;;;;;;;;;;5007503;28;19967;-40
2023/10/19 16:23:48;;;;;;;;;;;;;;;;;;5007142;28;19909;-41
2023/10/19 16:26:15;;;;;;;;;;;;;;;;;;5007560;28;19996;-41
2023/10/19 16:28:41;;;;;;;;;;;;;;;;;;5007850;28;19913;-41
2023/10/19 16:31:07;;;;;;;;;;;;;;;;;;5008045;28;19906;-41
2023/10/19 16:33:35;;;;;;;;;;;;;;;;;;5003535;28;19920;-43
2023/10/19 16:36:01;;;;;;;;;;;;;;;;;;5005755;28;19913;-42
2023/10/19 16:38:27;;;;;;;;;;;;;;;;;;5006987;28;20295;-41
2023/10/19 16:40:52;;;;;;;;;;;;;;;;;;5008517;28;19953;-41
2023/10/19 16:43:18;;;;;;;;;;;;;;;;;;5009608;28;20549;-41
2023/10/19 16:45:44;;;;;;;;;;;;;;;;;;5007572;28;19914;-43
2023/10/19 16:48:10;;;;;;;;;;;;;;;;;;4992277;28;19910;-41
2023/10/19 16:50:36;;;;;;;;;;;;;;;;;;5006078;28;20112;-41
2023/10/19 16:53:02;;;;;;;;;;;;;;;;;;5011669;28;19916;-42
2023/10/19 16:55:28;;;;;;;;;;;;;;;;;;5011497;28;19975;-42
2023/10/19 16:57:59;;;;;;;;;;;;;;;;;;5011934;28;19955;-41
2023/10/19 17:00:25;;;;;;;;;;;;;;;;;;5010572;28;19917;-42
2023/10/19 17:02:51;;;;;;;;;;;;;;;;;;5010367;28;19914;-41
2023/10/19 17:05:17;;;;;;;;;;;;;;;;;;5011368;28;20000;-42
2023/10/19 17:07:42;;;;;;;;;;;;;;;;;;5011249;28;19967;-41
2023/10/19 17:10:09;;;;;;;;;;;;;;;;;;5011566;28;19917;-42
2023/10/19 17:12:36;;;;;;;;;;;;;;;;;;5007604;28;20001;-41
2023/10/19 17:15:02;;;;;;;;;;;;;;;;;;5009800;28;19913;-41
2023/10/19 17:17:28;;;;;;;;;;;;;;;;;;5008465;28;20004;-43
2023/10/19 17:19:54;;;;;;;;;;;;;;;;;;5009318;28;20464;-42
2023/10/19 17:22:20;;;;;;;;;;;;;;;;;;5009694;28;19921;-42
2023/10/19 17:24:46;;;;;;;;;;;;;;;;;;5008457;28;20292;-41
2023/10/19 17:27:12;;;;;;;;;;;;;;;;;;5005594;28;19921;-43
2023/10/19 17:29:38;;;;;;;;;;;;;;;;;;5010128;28;19983;-43
2023/10/19 17:32:04;;;;;;;;;;;;;;;;;;5007907;28;19913;-42
2023/10/19 17:34:31;;;;;;;;;;;;;;;;;;5006571;28;19921;-43
2023/10/19 17:36:57;;;;;;;;;;;;;;;;;;5007900;28;19921;-42
2023/10/19 17:39:23;;;;;;;;;;;;;;;;;;5009813;28;19913;-42
2023/10/19 17:41:49;;;;;;;;;;;;;;;;;;5009518;28;19917;-41
2023/10/19 17:44:15;;;;;;;;;;;;;;;;;;5005860;28;20330;-42
2023/10/19 17:46:41;;;;;;;;;;;;;;;;;;5005180;28;19921;-42
2023/10/19 17:49:07;;;;;;;;;;;;;;;;;;5007620;28;19920;-43
2023/10/19 17:51:34;;;;;;;;;;;;;;;;;;5008119;28;21099;-42
2023/10/19 17:54:01;;;;;;;;;;;;;;;;;;5008017;28;19964;-43
2023/10/19 17:56:27;;;;;;;;;;;;;;;;;;5005927;28;19918;-42
2023/10/19 17:58:52;;;;;;;;;;;;;;;;;;5004191;28;19972;-43
2023/10/19 18:01:18;;;;;;;;;;;;;;;;;;5003237;28;19925;-42
2023/10/19 18:03:44;;;;;;;;;;;;;;;;;;5001675;28;19996;-44
2023/10/19 18:06:10;;;;;;;;;;;;;;;;;;5004345;28;20391;-43
2023/10/19 18:08:37;;;;;;;;;;;;;;;;;;5003841;28;19940;-43
2023/10/19 18:11:03;;;;;;;;;;;;;;;;;;5002762;28;20548;-43
2023/10/19 18:13:30;;;;;;;;;;;;;;;;;;5004150;28;19917;-45
2023/10/19 18:15:57;;;;;;;;;;;;;;;;;;5005949;28;19913;-43
2023/10/19 18:18:24;;;;;;;;;;;;;;;;;;4996568;28;19914;-44
2023/10/19 18:20:51;;;;;;;;;;;;;;;;;;5004383;28;20011;-42
2023/10/19 18:23:17;;;;;;;;;;;;;;;;;;5006691;28;19987;-42
2023/10/19 18:25:43;;;;;;;;;;;;;;;;;;5005216;28;20408;-46
2023/10/19 18:28:09;;;;;;;;;;;;;;;;;;5004352;28;19913;-42
2023/10/19 18:30:38;;;;;;;;;;;;;;;;;;4998615;28;19920;-43
2023/10/19 18:33:04;;;;;;;;;;;;;;;;;;5000446;28;19960;-45
2023/10/19 18:35:30;;;;;;;;;;;;;;;;;;5002260;28;19913;-43
2023/10/19 18:37:56;;;;;;;;;;;;;;;;;;5002982;28;20407;-44
2023/10/19 18:40:23;;;;;;;;;;;;;;;;;;5003479;28;19917;-45
2023/10/19 18:42:49;;;;;;;;;;;;;;;;;;5006680;28;19913;-44
2023/10/19 18:45:15;;;;;;;;;;;;;;;;;;5006207;28;19920;-43
2023/10/19 18:47:41;;;;;;;;;;;;;;;;;;5005392;28;19924;-43
2023/10/19 18:50:08;;;;;;;;;;;;;;;;;;5003399;28;19925;-44
2023/10/19 18:52:34;;;;;;;;;;;;;;;;;;5005492;28;19918;-43
2023/10/19 18:55:00;;;;;;;;;;;;;;;;;;5005211;28;20337;-44
2023/10/19 18:57:27;;;;;;;;;;;;;;;;;;5003904;28;19920;-45
2023/10/19 18:59:54;;;;;;;;;;;;;;;;;;5000747;28;19929;-44
2023/10/19 19:02:20;;;;;;;;;;;;;;;;;;4999063;28;20685;-43
2023/10/19 19:04:48;;;;;;;;;;;;;;;;;;5003126;28;19917;-47
2023/10/19 19:07:14;;;;;;;;;;;;;;;;;;5001360;28;20001;-44
2023/10/19 19:09:40;;;;;;;;;;;;;;;;;;5005132;28;20071;-47
2023/10/19 19:12:06;;;;;;;;;;;;;;;;;;5004245;28;19933;-44
2023/10/19 19:14:32;;;;;;;;;;;;;;;;;;5004747;28;19918;-43
2023/10/19 19:16:59;;;;;;;;;;;;;;;;;;5003222;28;19921;-45
2023/10/19 19:19:25;;;;;;;;;;;;;;;;;;5002111;28;19934;-45
2023/10/19 19:21:50;;;;;;;;;;;;;;;;;;5002854;28;19918;-45
2023/10/19 19:24:16;;;;;;;;;;;;;;;;;;5005042;28;20331;-47
2023/10/19 19:26:42;;;;;;;;;;;;;;;;;;5006562;28;19913;-44
2023/10/19 19:29:08;;;;;;;;;;;;;;;;;;5002940;28;19918;-44
2023/10/19 19:31:34;;;;;;;;;;;;;;;;;;5003447;28;20352;-46
2023/10/19 19:34:00;;;;;;;;;;;;;;;;;;5004084;28;19913;-47
2023/10/19 19:36:27;;;;;;;;;;;;;;;;;;4999253;28;20412;-46
2023/10/19 19:38:53;;;;;;;;;;;;;;;;;;5001173;28;19972;-47
2023/10/19 19:41:20;;;;;;;;;;;;;;;;;;5005663;28;19952;-43
2023/10/19 19:43:46;;;;;;;;;;;;;;;;;;5004182;28;20531;-44
2023/10/19 19:46:17;;;;;;;;;;;;;;;;;;5004147;28;20447;-46
2023/10/19 19:48:44;;;;;;;;;;;;;;;;;;5005157;28;20335;-46
2023/10/19 19:51:10;;;;;;;;;;;;;;;;;;5002878;28;19920;-46
2023/10/19 19:53:37;;;;;;;;;;;;;;;;;;5004922;28;19960;-39
2023/10/19 19:56:03;;;;;;;;;;;;;;;;;;5003985;28;20287;-40
2023/10/19 19:58:29;;;;;;;;;;;;;;;;;;5004620;28;20004;-40
2023/10/19 20:00:55;;;;;;;;;;;;;;;;;;5003322;28;19914;-39
2023/10/19 20:03:21;;;;;;;;;;;;;;;;;;5004386;28;19924;-40
2023/10/19 20:05:47;;;;;;;;;;;;;;;;;;5000985;28;19960;-39
2023/10/19 20:08:13;;;;;;;;;;;;;;;;;;5006666;28;19909;-39
2023/10/19 20:10:39;;;;;;;;;;;;;;;;;;5002449;28;20446;-40
2023/10/19 20:13:05;;;;;;;;;;;;;;;;;;5003800;28;19935;-40
2023/10/19 20:15:31;;;;;;;;;;;;;;;;;;5008438;28;19909;-40
2023/10/19 20:17:57;;;;;;;;;;;;;;;;;;5007618;28;19914;-40
2023/10/19 20:20:23;;;;;;;;;;;;;;;;;;5008649;28;20330;-40
2023/10/19 20:22:51;;;;;;;;;;;;;;;;;;5006604;28;19921;-39
2023/10/19 20:25:17;;;;;;;;;;;;;;;;;;5006988;28;20230;-40
2023/10/19 20:27:43;;;;;;;;;;;;;;;;;;5009270;28;19921;-39
2023/10/19 20:30:12;;;;;;;;;;;;;;;;;;5009067;28;19920;-39
2023/10/19 20:32:38;;;;;;;;;;;;;;;;;;5005651;28;20056;-39
2023/10/19 20:35:05;;;;;;;;;;;;;;;;;;5009326;28;19910;-39
2023/10/19 20:37:31;;;;;;;;;;;;;;;;;;5006302;28;20327;-39
2023/10/19 20:40:00;;;;;;;;;;;;;;;;;;5009924;28;19968;-40
2023/10/19 20:42:26;;;;;;;;;;;;;;;;;;5009384;28;20277;-39
2023/10/19 20:44:53;;;;;;;;;;;;;;;;;;5007239;28;19961;-39
2023/10/19 20:47:19;;;;;;;;;;;;;;;;;;5008511;28;19996;-39
2023/10/19 20:49:45;;;;;;;;;;;;;;;;;;5009226;28;20004;-40
2023/10/19 20:52:11;;;;;;;;;;;;;;;;;;5009271;28;19910;-39
2023/10/19 20:54:37;;;;;;;;;;;;;;;;;;5009852;28;20176;-39
2023/10/19 20:57:03;;;;;;;;;;;;;;;;;;5007176;28;20335;-40
2023/10/19 20:59:29;;;;;;;;;;;;;;;;;;4988400;28;19922;-40
2023/10/19 21:01:57;;;;;;;;;;;;;;;;;;4989739;28;20365;-40
2023/10/19 21:04:23;;;;;;;;;;;;;;;;;;4989483;28;19916;-39
2023/10/19 21:06:48;;;;;;;;;;;;;;;;;;4990058;28;20575;-39
2023/10/19 21:09:15;;;;;;;;;;;;;;;;;;5008208;28;19917;-40
2023/10/19 21:11:41;;;;;;;;;;;;;;;;;;5007618;28;20335;-40
2023/10/19 21:14:07;;;;;;;;;;;;;;;;;;5007797;28;19917;-40
2023/10/19 21:16:33;;;;;;;;;;;;;;;;;;5008886;28;20265;-40
2023/10/19 21:19:00;;;;;;;;;;;;;;;;;;5006287;28;20454;-45
2023/10/19 21:21:26;;;;;;;;;;;;;;;;;;5009880;28;19967;-48
2023/10/19 21:23:53;;;;;;;;;;;;;;;;;;5008680;28;19921;-45
2023/10/19 21:26:19;;;;;;;;;;;;;;;;;;5008482;28;20503;-45
2023/10/19 21:28:45;;;;;;;;;;;;;;;;;;5009937;28;20004;-44
2023/10/19 21:31:11;;;;;;;;;;;;;;;;;;5009403;28;19913;-47
2023/10/19 21:33:37;;;;;;;;;;;;;;;;;;5006349;28;19921;-45
2023/10/19 21:36:04;;;;;;;;;;;;;;;;;;5009766;28;19910;-43
2023/10/19 21:38:32;;;;;;;;;;;;;;;;;;5008470;28;19940;-44
2023/10/19 21:40:57;;;;;;;;;;;;;;;;;;5009377;28;19914;-43
2023/10/19 21:43:23;;;;;;;;;;;;;;;;;;5006922;28;20380;-48
2023/10/19 21:45:50;;;;;;;;;;;;;;;;;;5009358;28;19909;-46
2023/10/19 21:48:16;;;;;;;;;;;;;;;;;;5009350;28;19909;-47
2023/10/19 21:50:42;;;;;;;;;;;;;;;;;;5009131;28;20387;-45
2023/10/19 21:53:08;;;;;;;;;;;;;;;;;;5008166;28;19995;-44
2023/10/19 21:55:34;;;;;;;;;;;;;;;;;;5009159;28;19964;-44
2023/10/19 21:58:00;;;;;;;;;;;;;;;;;;5008969;28;19982;-45
2023/10/19 22:00:29;;;;;;;;;;;;;;;;;;5008578;28;19913;-43